sensor_id;sensor_type;location;lat;lon;timestamp;pressure;altitude;pressure_sealevel;temperature;humidity
40864;BME280;26582;47.524;19.012;2024-01-16T00:00:22;97714.66;;;3.14;56.40
40864;BME280;26582;47.524;19.012;2024-01-16T00:02:48;97720.78;;;3.25;56.11
40864;BME280;26582;47.524;19.012;2024-01-16T00:05:17;97730.44;;;3.14;56.60
40864;BME280;26582;47.524;19.012;2024-01-16T00:07:43;97729.41;;;3.06;57.27
40864;BME280;26582;47.524;19.012;2024-01-16T00:10:10;97732.34;;;2.92;57.51
40864;BME280;26582;47.524;19.012;2024-01-16T00:12:37;97726.91;;;2.83;58.02
40864;BME280;26582;47.524;19.012;2024-01-16T00:15:06;97730.22;;;2.85;58.23
40864;BME280;26582;47.524;19.012;2024-01-16T00:17:32;97730.28;;;2.74;58.73
40864;BME280;26582;47.524;19.012;2024-01-16T00:19:59;97733.22;;;2.81;58.49
40864;BME280;26582;47.524;19.012;2024-01-16T00:22:27;97746.75;;;2.97;58.18
40864;BME280;26582;47.524;19.012;2024-01-16T00:24:54;97750.75;;;2.92;58.48
40864;BME280;26582;47.524;19.012;2024-01-16T00:27:21;97739.59;;;2.78;58.89
40864;BME280;26582;47.524;19.012;2024-01-16T00:29:48;97741.03;;;2.71;59.52
40864;BME280;26582;47.524;19.012;2024-01-16T00:32:14;97743.81;;;2.70;59.78
40864;BME280;26582;47.524;19.012;2024-01-16T00:34:42;97759.06;;;2.76;59.94
40864;BME280;26582;47.524;19.012;2024-01-16T00:37:08;97759.53;;;2.49;60.19
40864;BME280;26582;47.524;19.012;2024-01-16T00:39:36;97756.44;;;2.44;60.56
40864;BME280;26582;47.524;19.012;2024-01-16T00:42:04;97765.13;;;2.55;60.45
40864;BME280;26582;47.524;19.012;2024-01-16T00:44:31;97774.88;;;2.65;60.32
40864;BME280;26582;47.524;19.012;2024-01-16T00:46:57;97778.47;;;2.64;60.36
40864;BME280;26582;47.524;19.012;2024-01-16T00:49:26;97782.84;;;2.74;60.11
40864;BME280;26582;47.524;19.012;2024-01-16T00:51:53;97786.22;;;2.65;60.25
40864;BME280;26582;47.524;19.012;2024-01-16T00:54:20;97785.94;;;2.79;59.70
40864;BME280;26582;47.524;19.012;2024-01-16T00:56:48;97795.50;;;2.80;59.73
40864;BME280;26582;47.524;19.012;2024-01-16T00:59:15;97798.84;;;2.82;59.58
40864;BME280;26582;47.524;19.012;2024-01-16T01:01:41;97786.25;;;2.86;58.74
40864;BME280;26582;47.524;19.012;2024-01-16T01:04:08;97810.81;;;2.75;58.96
40864;BME280;26582;47.524;19.012;2024-01-16T01:06:35;97809.84;;;2.76;58.83
40864;BME280;26582;47.524;19.012;2024-01-16T01:09:02;97815.59;;;2.70;59.03
40864;BME280;26582;47.524;19.012;2024-01-16T01:11:29;97817.16;;;2.73;58.81
40864;BME280;26582;47.524;19.012;2024-01-16T01:13:57;97817.03;;;2.74;58.96
40864;BME280;26582;47.524;19.012;2024-01-16T01:16:24;97828.50;;;2.73;59.31
40864;BME280;26582;47.524;19.012;2024-01-16T01:18:51;97827.75;;;2.82;58.86
40864;BME280;26582;47.524;19.012;2024-01-16T01:21:18;97834.00;;;3.02;58.39
40864;BME280;26582;47.524;19.012;2024-01-16T01:23:44;97830.81;;;2.99;58.03
40864;BME280;26582;47.524;19.012;2024-01-16T01:26:11;97842.75;;;2.92;58.39
40864;BME280;26582;47.524;19.012;2024-01-16T01:28:39;97846.31;;;3.02;58.21
40864;BME280;26582;47.524;19.012;2024-01-16T01:31:08;97835.84;;;2.91;58.65
40864;BME280;26582;47.524;19.012;2024-01-16T01:33:35;97836.06;;;2.99;58.12
40864;BME280;26582;47.524;19.012;2024-01-16T01:36:01;97836.22;;;2.86;57.94
40864;BME280;26582;47.524;19.012;2024-01-16T01:38:28;97841.38;;;2.87;57.89
40864;BME280;26582;47.524;19.012;2024-01-16T01:40:55;97827.53;;;2.74;57.86
40864;BME280;26582;47.524;19.012;2024-01-16T01:43:23;97835.16;;;2.88;57.85
40864;BME280;26582;47.524;19.012;2024-01-16T01:46:00;97840.41;;;2.88;57.49
40864;BME280;26582;47.524;19.012;2024-01-16T01:48:33;97841.75;;;2.83;57.67
40864;BME280;26582;47.524;19.012;2024-01-16T01:51:00;97840.41;;;2.88;57.21
40864;BME280;26582;47.524;19.012;2024-01-16T01:53:30;97845.59;;;2.68;57.95
40864;BME280;26582;47.524;19.012;2024-01-16T01:55:57;97848.47;;;2.65;57.69
40864;BME280;26582;47.524;19.012;2024-01-16T01:58:24;97854.25;;;2.91;57.14
40864;BME280;26582;47.524;19.012;2024-01-16T02:00:51;97850.56;;;2.93;56.81
40864;BME280;26582;47.524;19.012;2024-01-16T02:03:17;97868.13;;;2.93;56.92
40864;BME280;26582;47.524;19.012;2024-01-16T02:05:46;97859.72;;;2.99;56.59
40864;BME280;26582;47.524;19.012;2024-01-16T02:08:13;97869.16;;;3.01;56.35
40864;BME280;26582;47.524;19.012;2024-01-16T02:10:42;97878.97;;;2.99;56.38
40864;BME280;26582;47.524;19.012;2024-01-16T02:13:11;97878.03;;;2.89;56.35
40864;BME280;26582;47.524;19.012;2024-01-16T02:15:38;97884.31;;;2.77;56.86
40864;BME280;26582;47.524;19.012;2024-01-16T02:18:06;97886.69;;;2.69;57.33
40864;BME280;26582;47.524;19.012;2024-01-16T02:20:33;97892.78;;;2.69;57.36
40864;BME280;26582;47.524;19.012;2024-01-16T02:23:03;97892.91;;;2.68;57.48
40864;BME280;26582;47.524;19.012;2024-01-16T02:25:31;97890.53;;;2.65;57.64
40864;BME280;26582;47.524;19.012;2024-01-16T02:27:59;97899.72;;;2.59;57.98
40864;BME280;26582;47.524;19.012;2024-01-16T02:30:26;97907.25;;;2.64;58.07
40864;BME280;26582;47.524;19.012;2024-01-16T02:32:52;97898.78;;;2.60;58.01
40864;BME280;26582;47.524;19.012;2024-01-16T02:35:19;97904.84;;;2.60;58.44
40864;BME280;26582;47.524;19.012;2024-01-16T02:37:46;97896.63;;;2.54;58.52
40864;BME280;26582;47.524;19.012;2024-01-16T02:40:13;97904.03;;;2.60;58.19
40864;BME280;26582;47.524;19.012;2024-01-16T02:42:41;97909.91;;;2.41;59.06
40864;BME280;26582;47.524;19.012;2024-01-16T02:45:08;97906.31;;;2.42;59.02
40864;BME280;26582;47.524;19.012;2024-01-16T02:47:35;97919.56;;;2.63;58.87
40864;BME280;26582;47.524;19.012;2024-01-16T02:50:02;97909.66;;;2.67;58.59
40864;BME280;26582;47.524;19.012;2024-01-16T02:52:29;97914.06;;;2.55;58.84
40864;BME280;26582;47.524;19.012;2024-01-16T02:54:55;97923.97;;;2.40;58.83
40864;BME280;26582;47.524;19.012;2024-01-16T02:57:22;97916.22;;;2.50;58.98
40864;BME280;26582;47.524;19.012;2024-01-16T02:59:50;97917.78;;;2.52;58.57
40864;BME280;26582;47.524;19.012;2024-01-16T03:02:16;97924.56;;;2.55;58.68
40864;BME280;26582;47.524;19.012;2024-01-16T03:04:42;97925.53;;;2.54;58.50
40864;BME280;26582;47.524;19.012;2024-01-16T03:07:09;97925.78;;;2.51;58.67
40864;BME280;26582;47.524;19.012;2024-01-16T03:09:36;97923.38;;;2.59;58.20
40864;BME280;26582;47.524;19.012;2024-01-16T03:12:03;97935.34;;;2.52;58.36
40864;BME280;26582;47.524;19.012;2024-01-16T03:14:30;97932.47;;;2.32;58.78
40864;BME280;26582;47.524;19.012;2024-01-16T03:17:01;97932.00;;;2.39;58.57
40864;BME280;26582;47.524;19.012;2024-01-16T03:19:28;97934.63;;;2.39;58.66
40864;BME280;26582;47.524;19.012;2024-01-16T03:21:54;97937.03;;;2.30;58.61
40864;BME280;26582;47.524;19.012;2024-01-16T03:24:21;97937.03;;;2.30;58.36
40864;BME280;26582;47.524;19.012;2024-01-16T03:26:48;97942.28;;;2.30;57.99
40864;BME280;26582;47.524;19.012;2024-01-16T03:29:14;97938.31;;;2.14;58.88
40864;BME280;26582;47.524;19.012;2024-01-16T03:31:41;97948.44;;;2.18;57.84
40864;BME280;26582;47.524;19.012;2024-01-16T03:34:09;97947.75;;;2.16;57.53
40864;BME280;26582;47.524;19.012;2024-01-16T03:36:36;97952.72;;;1.97;58.15
40864;BME280;26582;47.524;19.012;2024-01-16T03:39:03;97959.91;;;1.95;57.83
40864;BME280;26582;47.524;19.012;2024-01-16T03:41:31;97954.66;;;2.06;57.32
40864;BME280;26582;47.524;19.012;2024-01-16T03:43:57;97955.84;;;2.02;56.41
40864;BME280;26582;47.524;19.012;2024-01-16T03:46:24;97963.50;;;2.16;56.66
40864;BME280;26582;47.524;19.012;2024-01-16T03:48:50;97965.88;;;2.19;56.43
40864;BME280;26582;47.524;19.012;2024-01-16T03:51:18;97965.78;;;2.21;56.42
40864;BME280;26582;47.524;19.012;2024-01-16T03:53:45;97969.00;;;2.24;56.83
40864;BME280;26582;47.524;19.012;2024-01-16T03:56:12;97970.41;;;2.06;56.85
40864;BME280;26582;47.524;19.012;2024-01-16T03:58:39;97968.50;;;2.08;57.01
40864;BME280;26582;47.524;19.012;2024-01-16T04:01:06;97969.72;;;2.04;57.41
40864;BME280;26582;47.524;19.012;2024-01-16T04:03:33;97961.72;;;2.17;56.85
40864;BME280;26582;47.524;19.012;2024-01-16T04:06:00;97981.63;;;2.19;56.94
40864;BME280;26582;47.524;19.012;2024-01-16T04:08:28;97973.31;;;2.25;55.62
40864;BME280;26582;47.524;19.012;2024-01-16T04:10:55;97976.84;;;2.13;56.03
40864;BME280;26582;47.524;19.012;2024-01-16T04:13:21;97982.47;;;2.08;55.89
40864;BME280;26582;47.524;19.012;2024-01-16T04:15:48;97974.50;;;2.10;56.01
40864;BME280;26582;47.524;19.012;2024-01-16T04:18:15;97982.94;;;2.14;55.67
40864;BME280;26582;47.524;19.012;2024-01-16T04:20:42;97993.94;;;2.19;55.08
40864;BME280;26582;47.524;19.012;2024-01-16T04:23:08;98002.19;;;2.14;55.38
40864;BME280;26582;47.524;19.012;2024-01-16T04:25:38;98001.94;;;2.17;55.18
40864;BME280;26582;47.524;19.012;2024-01-16T04:28:05;98002.56;;;2.21;55.10
40864;BME280;26582;47.524;19.012;2024-01-16T04:30:31;98000.28;;;2.16;55.07
40864;BME280;26582;47.524;19.012;2024-01-16T04:32:58;98010.53;;;2.19;54.90
40864;BME280;26582;47.524;19.012;2024-01-16T04:35:24;98009.59;;;2.20;55.10
40864;BME280;26582;47.524;19.012;2024-01-16T04:37:51;98024.06;;;2.26;54.69
40864;BME280;26582;47.524;19.012;2024-01-16T04:40:19;98017.47;;;2.20;55.03
40864;BME280;26582;47.524;19.012;2024-01-16T04:42:47;98032.78;;;2.26;54.43
40864;BME280;26582;47.524;19.012;2024-01-16T04:45:13;98039.34;;;2.32;54.51
40864;BME280;26582;47.524;19.012;2024-01-16T04:47:40;98032.78;;;2.26;54.70
40864;BME280;26582;47.524;19.012;2024-01-16T04:50:08;98035.25;;;2.28;54.21
40864;BME280;26582;47.524;19.012;2024-01-16T04:52:35;98042.53;;;2.24;54.28
40864;BME280;26582;47.524;19.012;2024-01-16T04:55:01;98040.63;;;2.15;54.56
40864;BME280;26582;47.524;19.012;2024-01-16T04:57:28;98035.38;;;2.15;54.67
40864;BME280;26582;47.524;19.012;2024-01-16T04:59:56;98052.03;;;2.03;54.53
40864;BME280;26582;47.524;19.012;2024-01-16T05:02:23;98060.00;;;1.90;55.00
40864;BME280;26582;47.524;19.012;2024-01-16T05:04:49;98057.53;;;2.00;54.62
40864;BME280;26582;47.524;19.012;2024-01-16T05:07:17;98058.97;;;2.04;54.33
40864;BME280;26582;47.524;19.012;2024-01-16T05:09:46;98057.91;;;2.06;55.06
40864;BME280;26582;47.524;19.012;2024-01-16T05:12:13;98069.38;;;2.17;54.39
40864;BME280;26582;47.524;19.012;2024-01-16T05:14:39;98072.59;;;2.09;54.62
40864;BME280;26582;47.524;19.012;2024-01-16T05:17:07;98081.00;;;2.25;54.30
40864;BME280;26582;47.524;19.012;2024-01-16T05:19:34;98086.97;;;2.27;54.29
40864;BME280;26582;47.524;19.012;2024-01-16T05:22:01;98091.38;;;2.27;54.02
40864;BME280;26582;47.524;19.012;2024-01-16T05:24:28;98087.56;;;2.20;53.81
40864;BME280;26582;47.524;19.012;2024-01-16T05:26:55;98099.16;;;2.28;53.63
40864;BME280;26582;47.524;19.012;2024-01-16T05:29:22;98105.50;;;2.02;54.15
40864;BME280;26582;47.524;19.012;2024-01-16T05:31:48;98114.13;;;2.04;54.24
40864;BME280;26582;47.524;19.012;2024-01-16T05:34:16;98117.56;;;2.04;54.76
40864;BME280;26582;47.524;19.012;2024-01-16T05:36:43;98111.38;;;2.05;54.40
40864;BME280;26582;47.524;19.012;2024-01-16T05:39:10;98131.53;;;2.05;54.22
40864;BME280;26582;47.524;19.012;2024-01-16T05:41:36;98130.78;;;2.03;54.23
40864;BME280;26582;47.524;19.012;2024-01-16T05:44:03;98134.75;;;2.08;53.73
40864;BME280;26582;47.524;19.012;2024-01-16T05:46:31;98132.41;;;2.17;53.94
40864;BME280;26582;47.524;19.012;2024-01-16T05:48:57;98133.25;;;2.17;53.72
40864;BME280;26582;47.524;19.012;2024-01-16T05:51:27;98136.16;;;2.25;53.20
40864;BME280;26582;47.524;19.012;2024-01-16T05:53:54;98144.16;;;2.00;53.58
40864;BME280;26582;47.524;19.012;2024-01-16T05:56:20;98138.88;;;1.89;53.41
40864;BME280;26582;47.524;19.012;2024-01-16T05:58:47;98149.63;;;1.97;54.09
40864;BME280;26582;47.524;19.012;2024-01-16T06:01:14;98149.91;;;2.05;53.17
40864;BME280;26582;47.524;19.012;2024-01-16T06:03:41;98162.03;;;1.95;53.14
40864;BME280;26582;47.524;19.012;2024-01-16T06:06:10;98159.41;;;1.95;53.82
40864;BME280;26582;47.524;19.012;2024-01-16T06:08:38;98168.28;;;1.81;53.75
40864;BME280;26582;47.524;19.012;2024-01-16T06:11:05;98165.88;;;1.78;53.11
40864;BME280;26582;47.524;19.012;2024-01-16T06:13:32;98177.88;;;1.69;52.75
40864;BME280;26582;47.524;19.012;2024-01-16T06:15:58;98183.25;;;1.68;53.94
40864;BME280;26582;47.524;19.012;2024-01-16T06:18:25;98177.44;;;1.75;53.22
40864;BME280;26582;47.524;19.012;2024-01-16T06:20:52;98183.19;;;1.80;53.63
40864;BME280;26582;47.524;19.012;2024-01-16T06:23:18;98177.22;;;1.78;53.68
40864;BME280;26582;47.524;19.012;2024-01-16T06:25:46;98188.66;;;1.77;53.38
40864;BME280;26582;47.524;19.012;2024-01-16T06:28:13;98188.38;;;1.69;53.30
40864;BME280;26582;47.524;19.012;2024-01-16T06:30:40;98198.00;;;1.81;53.50
40864;BME280;26582;47.524;19.012;2024-01-16T06:33:07;98198.00;;;1.81;53.51
40864;BME280;26582;47.524;19.012;2024-01-16T06:35:33;98201.78;;;1.77;53.24
40864;BME280;26582;47.524;19.012;2024-01-16T06:38:01;98192.53;;;1.85;53.34
40864;BME280;26582;47.524;19.012;2024-01-16T06:40:27;98194.56;;;1.68;53.71
40864;BME280;26582;47.524;19.012;2024-01-16T06:42:55;98190.84;;;1.47;53.52
40864;BME280;26582;47.524;19.012;2024-01-16T06:45:22;98200.91;;;1.53;54.07
40864;BME280;26582;47.524;19.012;2024-01-16T06:47:51;98208.97;;;1.63;53.86
40864;BME280;26582;47.524;19.012;2024-01-16T06:50:17;98210.31;;;1.68;53.82
40864;BME280;26582;47.524;19.012;2024-01-16T06:52:44;98219.53;;;1.74;53.02
40864;BME280;26582;47.524;19.012;2024-01-16T06:55:11;98217.44;;;1.79;53.48
40864;BME280;26582;47.524;19.012;2024-01-16T06:57:38;98226.25;;;1.78;52.94
40864;BME280;26582;47.524;19.012;2024-01-16T07:00:07;98220.13;;;1.77;52.60
40864;BME280;26582;47.524;19.012;2024-01-16T07:02:34;98224.97;;;1.83;52.41
40864;BME280;26582;47.524;19.012;2024-01-16T07:05:00;98242.31;;;1.73;53.02
40864;BME280;26582;47.524;19.012;2024-01-16T07:07:27;98238.03;;;1.72;52.76
40864;BME280;26582;47.524;19.012;2024-01-16T07:09:53;98247.06;;;1.68;52.46
40864;BME280;26582;47.524;19.012;2024-01-16T07:12:21;98250.78;;;1.90;52.27
40864;BME280;26582;47.524;19.012;2024-01-16T07:14:47;98260.72;;;1.97;52.06
40864;BME280;26582;47.524;19.012;2024-01-16T07:17:15;98265.47;;;2.05;52.08
40864;BME280;26582;47.524;19.012;2024-01-16T07:19:42;98266.50;;;2.02;51.79
40864;BME280;26582;47.524;19.012;2024-01-16T07:22:08;98278.16;;;2.11;51.42
40864;BME280;26582;47.524;19.012;2024-01-16T07:24:35;98277.81;;;2.16;51.43
40864;BME280;26582;47.524;19.012;2024-01-16T07:27:02;98275.78;;;2.19;51.14
40864;BME280;26582;47.524;19.012;2024-01-16T07:29:28;98283.84;;;2.29;50.77
40864;BME280;26582;47.524;19.012;2024-01-16T07:31:55;98282.06;;;2.29;50.87
40864;BME280;26582;47.524;19.012;2024-01-16T07:34:23;98292.59;;;2.53;50.30
40864;BME280;26582;47.524;19.012;2024-01-16T07:36:51;98302.81;;;2.45;50.75
40864;BME280;26582;47.524;19.012;2024-01-16T07:39:17;98300.31;;;2.68;49.94
40864;BME280;26582;47.524;19.012;2024-01-16T07:41:44;98291.06;;;2.86;49.71
40864;BME280;26582;47.524;19.012;2024-01-16T07:44:11;98310.09;;;2.90;49.71
40864;BME280;26582;47.524;19.012;2024-01-16T07:46:37;98316.59;;;3.08;49.63
40864;BME280;26582;47.524;19.012;2024-01-16T07:49:04;98323.28;;;3.01;48.87
40864;BME280;26582;47.524;19.012;2024-01-16T07:51:32;98328.09;;;3.07;49.34
40864;BME280;26582;47.524;19.012;2024-01-16T07:54:05;98326.19;;;3.09;49.15
40864;BME280;26582;47.524;19.012;2024-01-16T07:56:32;98331.22;;;3.12;49.36
40864;BME280;26582;47.524;19.012;2024-01-16T07:58:59;98325.41;;;2.96;49.19
40864;BME280;26582;47.524;19.012;2024-01-16T08:01:26;98337.22;;;2.90;49.38
40864;BME280;26582;47.524;19.012;2024-01-16T08:03:54;98343.66;;;2.86;49.13
40864;BME280;26582;47.524;19.012;2024-01-16T08:06:21;98348.75;;;3.00;49.42
40864;BME280;26582;47.524;19.012;2024-01-16T08:08:49;98348.38;;;2.94;49.83
40864;BME280;26582;47.524;19.012;2024-01-16T08:11:16;98352.25;;;3.12;49.20
40864;BME280;26582;47.524;19.012;2024-01-16T08:13:43;98351.25;;;3.02;49.55
40864;BME280;26582;47.524;19.012;2024-01-16T08:16:09;98361.41;;;2.95;49.80
40864;BME280;26582;47.524;19.012;2024-01-16T08:18:36;98352.97;;;3.03;49.84
40864;BME280;26582;47.524;19.012;2024-01-16T08:21:03;98364.81;;;2.84;49.25
40864;BME280;26582;47.524;19.012;2024-01-16T08:23:30;98363.53;;;2.90;49.74
40864;BME280;26582;47.524;19.012;2024-01-16T08:25:58;98368.31;;;2.96;49.32
40864;BME280;26582;47.524;19.012;2024-01-16T08:28:24;98375.72;;;2.91;49.41
40864;BME280;26582;47.524;19.012;2024-01-16T08:30:51;98371.28;;;2.92;49.50
40864;BME280;26582;47.524;19.012;2024-01-16T08:33:18;98382.81;;;2.78;49.47
40864;BME280;26582;47.524;19.012;2024-01-16T08:35:45;98380.72;;;2.70;49.85
40864;BME280;26582;47.524;19.012;2024-01-16T08:38:12;98384.69;;;2.88;49.37
40864;BME280;26582;47.524;19.012;2024-01-16T08:40:38;98382.25;;;2.85;49.70
40864;BME280;26582;47.524;19.012;2024-01-16T08:43:06;98386.84;;;2.95;49.28
40864;BME280;26582;47.524;19.012;2024-01-16T08:45:33;98388.69;;;3.05;48.47
40864;BME280;26582;47.524;19.012;2024-01-16T08:47:59;98402.28;;;3.23;48.70
40864;BME280;26582;47.524;19.012;2024-01-16T08:50:26;98397.47;;;3.17;48.70
40864;BME280;26582;47.524;19.012;2024-01-16T08:52:53;98394.88;;;3.28;48.13
40864;BME280;26582;47.524;19.012;2024-01-16T08:55:19;98398.31;;;3.53;48.01
40864;BME280;26582;47.524;19.012;2024-01-16T08:57:46;98394.84;;;3.52;47.97
40864;BME280;26582;47.524;19.012;2024-01-16T09:00:15;98398.16;;;3.43;47.36
40864;BME280;26582;47.524;19.012;2024-01-16T09:02:42;98416.09;;;3.38;48.00
40864;BME280;26582;47.524;19.012;2024-01-16T09:05:08;98419.16;;;3.56;47.51
40864;BME280;26582;47.524;19.012;2024-01-16T09:07:35;98408.44;;;3.35;46.82
40864;BME280;26582;47.524;19.012;2024-01-16T09:10:02;98418.34;;;3.55;47.18
40864;BME280;26582;47.524;19.012;2024-01-16T09:12:28;98416.59;;;3.78;46.81
40864;BME280;26582;47.524;19.012;2024-01-16T09:14:55;98414.94;;;3.88;45.65
40864;BME280;26582;47.524;19.012;2024-01-16T09:17:23;98416.03;;;3.51;46.34
40864;BME280;26582;47.524;19.012;2024-01-16T09:19:51;98418.53;;;3.52;46.11
40864;BME280;26582;47.524;19.012;2024-01-16T09:22:17;98412.94;;;3.57;45.96
40864;BME280;26582;47.524;19.012;2024-01-16T09:24:44;98424.28;;;3.46;46.35
40864;BME280;26582;47.524;19.012;2024-01-16T09:27:11;98415.41;;;3.47;46.37
40864;BME280;26582;47.524;19.012;2024-01-16T09:29:39;98417.25;;;3.58;45.85
40864;BME280;26582;47.524;19.012;2024-01-16T09:32:06;98417.16;;;3.71;45.87
40864;BME280;26582;47.524;19.012;2024-01-16T09:34:34;98412.03;;;3.80;45.18
40864;BME280;26582;47.524;19.012;2024-01-16T09:37:00;98426.50;;;3.75;45.05
40864;BME280;26582;47.524;19.012;2024-01-16T09:39:28;98415.09;;;3.52;45.49
40864;BME280;26582;47.524;19.012;2024-01-16T09:41:58;98418.47;;;3.65;44.77
40864;BME280;26582;47.524;19.012;2024-01-16T09:44:26;98418.25;;;3.44;44.89
40864;BME280;26582;47.524;19.012;2024-01-16T09:46:55;98422.22;;;3.14;45.36
40864;BME280;26582;47.524;19.012;2024-01-16T09:49:22;98425.94;;;3.47;45.71
40864;BME280;26582;47.524;19.012;2024-01-16T09:51:50;98423.78;;;3.76;45.27
40864;BME280;26582;47.524;19.012;2024-01-16T09:54:17;98417.25;;;4.15;44.41
40864;BME280;26582;47.524;19.012;2024-01-16T09:56:44;98428.88;;;4.13;43.57
40864;BME280;26582;47.524;19.012;2024-01-16T09:59:15;98426.16;;;3.79;43.90
40864;BME280;26582;47.524;19.012;2024-01-16T10:01:43;98428.94;;;4.00;43.40
40864;BME280;26582;47.524;19.012;2024-01-16T10:04:11;98422.34;;;3.83;43.61
40864;BME280;26582;47.524;19.012;2024-01-16T10:06:39;98418.44;;;4.11;43.56
40864;BME280;26582;47.524;19.012;2024-01-16T10:09:07;98419.03;;;4.15;43.32
40864;BME280;26582;47.524;19.012;2024-01-16T10:11:37;98415.56;;;4.14;42.91
40864;BME280;26582;47.524;19.012;2024-01-16T10:14:05;98408.25;;;4.07;43.50
40864;BME280;26582;47.524;19.012;2024-01-16T10:16:57;98418.34;;;4.24;43.75
40864;BME280;26582;47.524;19.012;2024-01-16T10:19:25;98423.00;;;4.32;43.13
40864;BME280;26582;47.524;19.012;2024-01-16T10:21:52;98423.13;;;4.53;42.81
40864;BME280;26582;47.524;19.012;2024-01-16T10:24:21;98423.59;;;4.58;43.30
40864;BME280;26582;47.524;19.012;2024-01-16T10:26:57;98434.63;;;4.63;42.44
40864;BME280;26582;47.524;19.012;2024-01-16T10:29:25;98415.47;;;4.50;42.19
40864;BME280;26582;47.524;19.012;2024-01-16T10:31:52;98427.16;;;4.79;42.38
40864;BME280;26582;47.524;19.012;2024-01-16T10:34:19;98417.84;;;4.75;42.44
40864;BME280;26582;47.524;19.012;2024-01-16T10:36:47;98416.25;;;4.72;42.11
40864;BME280;26582;47.524;19.012;2024-01-16T10:39:14;98422.16;;;4.76;41.93
40864;BME280;26582;47.524;19.012;2024-01-16T10:41:53;98415.19;;;4.86;41.55
40864;BME280;26582;47.524;19.012;2024-01-16T10:44:20;98417.31;;;4.92;41.55
40864;BME280;26582;47.524;19.012;2024-01-16T10:46:47;98428.81;;;4.80;41.89
40864;BME280;26582;47.524;19.012;2024-01-16T10:49:13;98430.28;;;4.84;41.40
40864;BME280;26582;47.524;19.012;2024-01-16T10:51:43;98436.19;;;4.65;41.93
40864;BME280;26582;47.524;19.012;2024-01-16T10:54:13;98421.06;;;4.67;41.91
40864;BME280;26582;47.524;19.012;2024-01-16T10:56:44;98429.13;;;4.55;42.40
40864;BME280;26582;47.524;19.012;2024-01-16T10:59:18;98415.94;;;4.55;41.98
40864;BME280;26582;47.524;19.012;2024-01-16T11:01:49;98431.75;;;4.66;42.27
40864;BME280;26582;47.524;19.012;2024-01-16T11:04:18;98424.69;;;4.55;42.28
40864;BME280;26582;47.524;19.012;2024-01-16T11:06:45;98422.75;;;4.57;42.04
40864;BME280;26582;47.524;19.012;2024-01-16T11:09:13;98422.75;;;4.57;41.90
40864;BME280;26582;47.524;19.012;2024-01-16T11:11:44;98430.53;;;4.59;42.37
40864;BME280;26582;47.524;19.012;2024-01-16T11:14:13;98422.94;;;4.88;42.02
40864;BME280;26582;47.524;19.012;2024-01-16T11:16:40;98419.94;;;4.92;41.85
40864;BME280;26582;47.524;19.012;2024-01-16T11:19:08;98418.97;;;4.93;41.55
40864;BME280;26582;47.524;19.012;2024-01-16T11:21:36;98413.81;;;5.35;40.93
40864;BME280;26582;47.524;19.012;2024-01-16T11:24:03;98409.22;;;5.48;41.11
40864;BME280;26582;47.524;19.012;2024-01-16T11:26:31;98418.75;;;5.61;40.65
40864;BME280;26582;47.524;19.012;2024-01-16T11:29:00;98410.06;;;5.70;40.29
40864;BME280;26582;47.524;19.012;2024-01-16T11:31:28;98397.78;;;5.90;40.31
40864;BME280;26582;47.524;19.012;2024-01-16T11:33:55;98405.13;;;5.97;39.98
40864;BME280;26582;47.524;19.012;2024-01-16T11:36:43;98422.63;;;6.19;39.35
40864;BME280;26582;47.524;19.012;2024-01-16T11:39:17;98410.16;;;6.00;39.45
40864;BME280;26582;47.524;19.012;2024-01-16T11:41:54;98417.72;;;6.15;38.64
40864;BME280;26582;47.524;19.012;2024-01-16T11:44:42;98423.38;;;6.00;38.77
40864;BME280;26582;47.524;19.012;2024-01-16T11:47:09;98398.53;;;6.13;38.45
40864;BME280;26582;47.524;19.012;2024-01-16T11:49:41;98407.53;;;6.00;38.39
40864;BME280;26582;47.524;19.012;2024-01-16T11:52:08;98402.66;;;6.36;38.80
40864;BME280;26582;47.524;19.012;2024-01-16T11:54:36;98408.94;;;6.35;38.01
40864;BME280;26582;47.524;19.012;2024-01-16T11:57:26;98401.38;;;6.31;38.11
40864;BME280;26582;47.524;19.012;2024-01-16T12:00:05;98402.00;;;6.44;37.66
40864;BME280;26582;47.524;19.012;2024-01-16T12:02:49;98404.03;;;6.31;38.02
40864;BME280;26582;47.524;19.012;2024-01-16T12:05:15;98395.59;;;6.06;38.19
40864;BME280;26582;47.524;19.012;2024-01-16T12:07:44;98408.28;;;6.12;37.32
40864;BME280;26582;47.524;19.012;2024-01-16T12:10:11;98402.31;;;6.20;37.80
40864;BME280;26582;47.524;19.012;2024-01-16T12:12:38;98412.72;;;6.12;37.19
40864;BME280;26582;47.524;19.012;2024-01-16T12:15:13;98400.41;;;6.22;37.50
40864;BME280;26582;47.524;19.012;2024-01-16T12:17:52;98402.84;;;6.44;37.71
40864;BME280;26582;47.524;19.012;2024-01-16T12:20:19;98409.00;;;6.54;37.47
40864;BME280;26582;47.524;19.012;2024-01-16T12:22:52;98394.69;;;6.67;36.52
40864;BME280;26582;47.524;19.012;2024-01-16T12:25:19;98397.94;;;6.70;36.49
40864;BME280;26582;47.524;19.012;2024-01-16T12:27:54;98395.94;;;6.63;36.57
40864;BME280;26582;47.524;19.012;2024-01-16T12:30:24;98389.53;;;6.56;36.69
40864;BME280;26582;47.524;19.012;2024-01-16T12:32:50;98393.03;;;6.66;36.89
40864;BME280;26582;47.524;19.012;2024-01-16T12:35:21;98404.88;;;7.31;36.33
40864;BME280;26582;47.524;19.012;2024-01-16T12:37:59;98396.22;;;7.48;35.34
40864;BME280;26582;47.524;19.012;2024-01-16T12:40:26;98408.63;;;7.48;34.66
40864;BME280;26582;47.524;19.012;2024-01-16T12:42:53;98404.03;;;7.59;34.41
40864;BME280;26582;47.524;19.012;2024-01-16T12:45:21;98400.44;;;8.17;34.06
40864;BME280;26582;47.524;19.012;2024-01-16T12:47:51;98397.19;;;9.15;32.77
40864;BME280;26582;47.524;19.012;2024-01-16T12:50:20;98389.56;;;9.03;32.12
40864;BME280;26582;47.524;19.012;2024-01-16T12:52:48;98389.53;;;9.30;31.93
40864;BME280;26582;47.524;19.012;2024-01-16T12:55:15;98389.84;;;10.75;30.30
40864;BME280;26582;47.524;19.012;2024-01-16T12:57:43;98402.13;;;9.82;30.19
40864;BME280;26582;47.524;19.012;2024-01-16T13:00:24;98385.63;;;10.98;28.27
40864;BME280;26582;47.524;19.012;2024-01-16T13:02:52;98390.47;;;11.11;28.37